Time;durP1;ratioP1;P1;durP2;ratioP2;P2;SDS_P1;SDS_P2;PMS_P1;PMS_P2;Temp;Humidity;BMP_temperature;BMP_pressure;BME280_temperature;BME280_humidity;BME280_pressure;Samples;Min_cycle;Max_cycle;Signal;HPM_P1;HPM_P2
2023/12/23 00:00:05;;;;;;;8.45;2.45;;;;;;;7.87;100.00;100870.25;5093098;28;20044;-67
2023/12/23 00:02:54;;;;;;;10.93;2.58;;;;;;;7.86;100.00;100869.44;5092429;28;20041;-66
2023/12/23 00:05:42;;;;;;;9.48;2.20;;;;;;;7.86;100.00;100868.59;5087188;28;20039;-66
2023/12/23 00:08:31;;;;;;;11.63;3.65;;;;;;;7.85;100.00;100873.22;5092548;28;20066;-67
2023/12/23 00:11:19;;;;;;;10.20;2.67;;;;;;;7.84;100.00;100873.44;5096842;28;20040;-68
2023/12/23 00:14:07;;;;;;;9.18;2.50;;;;;;;7.81;100.00;100866.63;5096729;28;20078;-68
2023/12/23 00:16:55;;;;;;;9.60;2.70;;;;;;;7.79;100.00;100873.38;5092244;28;20055;-68
2023/12/23 00:19:43;;;;;;;8.27;2.20;;;;;;;7.77;100.00;100864.66;5077656;28;20071;-68
2023/12/23 00:22:31;;;;;;;9.07;2.88;;;;;;;7.78;100.00;100866.31;5091717;28;20519;-67
2023/12/23 00:25:19;;;;;;;8.57;2.30;;;;;;;7.76;100.00;100869.28;5076752;28;20126;-67
2023/12/23 00:28:07;;;;;;;8.93;2.45;;;;;;;7.75;100.00;100880.38;5077225;28;20539;-67
2023/12/23 00:30:55;;;;;;;10.65;2.83;;;;;;;7.73;100.00;100877.09;5078786;28;20354;-67
2023/12/23 00:33:44;;;;;;;8.13;2.33;;;;;;;7.73;100.00;100872.47;5091568;28;20048;-67
2023/12/23 00:36:32;;;;;;;10.93;2.92;;;;;;;7.73;100.00;100871.66;5076646;28;20048;-68
2023/12/23 00:39:21;;;;;;;9.35;2.42;;;;;;;7.71;100.00;100857.53;5064774;28;20424;-66
2023/12/23 00:42:09;;;;;;;8.50;2.70;;;;;;;7.72;100.00;100851.03;5082100;28;20224;-65
2023/12/23 00:44:57;;;;;;;10.25;2.83;;;;;;;7.72;100.00;100854.59;5083314;28;20126;-66
2023/12/23 00:47:45;;;;;;;8.73;2.38;;;;;;;7.72;100.00;100854.59;5077186;28;20127;-68
2023/12/23 00:50:34;;;;;;;9.85;2.35;;;;;;;7.71;100.00;100852.09;5072092;28;20459;-68
2023/12/23 00:53:25;;;;;;;7.47;2.30;;;;;;;7.71;100.00;100852.09;5092030;28;20079;-67
2023/12/23 00:56:20;;;;;;;9.77;2.65;;;;;;;7.69;100.00;100852.34;5076438;28;20177;-67
2023/12/23 00:59:08;;;;;;;9.95;2.60;;;;;;;7.69;100.00;100847.72;5057691;28;20048;-66
2023/12/23 01:01:56;;;;;;;6.85;2.28;;;;;;;7.68;100.00;100856.13;5072334;28;20056;-67
2023/12/23 01:04:44;;;;;;;8.52;2.78;;;;;;;7.66;100.00;100850.13;5056763;28;20052;-66
2023/12/23 01:07:32;;;;;;;7.85;2.50;;;;;;;7.66;100.00;100853.66;5071925;28;20056;-65
2023/12/23 01:10:24;;;;;;;7.32;2.33;;;;;;;7.67;100.00;100854.47;5097415;28;20055;-65
2023/12/23 01:13:12;;;;;;;8.23;2.28;;;;;;;7.65;100.00;100846.59;5083307;28;20070;-65
2023/12/23 01:16:00;;;;;;;9.55;2.22;;;;;;;7.65;100.00;100835.75;5084595;28;20048;-65
2023/12/23 01:18:48;;;;;;;8.65;2.10;;;;;;;7.66;100.00;100844.72;5063635;28;20548;-65
2023/12/23 01:21:36;;;;;;;8.43;2.60;;;;;;;7.67;100.00;100828.22;5078113;28;20056;-65
2023/12/23 01:24:24;;;;;;;7.53;2.15;;;;;;;7.68;100.00;100835.25;5095227;28;20048;-66
2023/12/23 01:27:12;;;;;;;10.57;3.15;;;;;;;7.67;100.00;100816.50;5097865;28;20078;-66
2023/12/23 01:30:00;;;;;;;8.80;2.88;;;;;;;7.68;100.00;100819.00;5061472;28;20464;-66
2023/12/23 01:32:49;;;;;;;8.23;2.60;;;;;;;7.71;100.00;100811.44;5078681;28;20122;-65
2023/12/23 01:35:39;;;;;;;8.60;2.55;;;;;;;7.74;100.00;100800.06;5077652;28;20056;-66
2023/12/23 01:38:27;;;;;;;5.03;2.05;;;;;;;7.78;100.00;100793.09;5090313;28;20158;-66
2023/12/23 01:41:15;;;;;;;8.02;2.40;;;;;;;7.84;100.00;100789.34;5043926;28;20062;-65
2023/12/23 01:44:03;;;;;;;6.40;2.13;;;;;;;7.86;100.00;100795.34;5062271;28;20118;-65
2023/12/23 01:46:52;;;;;;;6.40;2.30;;;;;;;7.87;100.00;100797.03;5093899;28;20087;-66
2023/12/23 01:49:42;;;;;;;7.60;2.42;;;;;;;7.89;100.00;100797.59;5057469;28;20072;-65
2023/12/23 01:52:31;;;;;;;7.60;2.30;;;;;;;7.87;100.00;100784.25;5090737;28;20044;-66
2023/12/23 01:55:19;;;;;;;10.27;3.20;;;;;;;7.88;100.00;100782.38;5062149;28;20543;-68
2023/12/23 01:58:07;;;;;;;10.52;3.03;;;;;;;7.87;100.00;100780.75;5058563;28;20041;-66
2023/12/23 02:00:55;;;;;;;10.90;3.03;;;;;;;7.86;100.00;100774.50;5055910;28;20531;-66
2023/12/23 02:03:44;;;;;;;10.40;2.90;;;;;;;7.88;100.00;100782.38;5070631;28;20052;-66
2023/12/23 02:06:32;;;;;;;9.43;2.97;;;;;;;7.88;100.00;100774.22;5042529;28;20135;-66
2023/12/23 02:09:20;;;;;;;10.27;3.08;;;;;;;7.89;100.00;100760.44;5082762;28;20136;-66
2023/12/23 02:12:23;;;;;;;13.20;3.42;;;;;;;7.88;100.00;100764.19;5103965;28;20073;-65
2023/12/23 02:15:14;;;;;;;9.63;2.88;;;;;;;7.92;100.00;100764.53;5044320;28;20091;-65
2023/12/23 02:18:02;;;;;;;10.60;3.65;;;;;;;7.96;100.00;100771.09;5060965;28;20052;-67
2023/12/23 02:20:51;;;;;;;14.48;3.42;;;;;;;8.03;100.00;100747.31;5091646;28;20036;-66
2023/12/23 02:23:39;;;;;;;11.70;2.97;;;;;;;8.13;100.00;100743.91;5063469;28;20047;-68
2023/12/23 02:26:29;;;;;;;8.57;2.75;;;;;;;8.16;100.00;100754.25;5078136;28;20091;-66
2023/12/23 02:29:19;;;;;;;10.55;3.08;;;;;;;8.19;100.00;100747.47;5094787;28;20044;-66
2023/12/23 02:32:09;;;;;;;14.20;3.40;;;;;;;8.23;100.00;100726.91;5078893;28;20052;-66
2023/12/23 02:34:57;;;;;;;12.07;3.53;;;;;;;8.22;100.00;100731.50;5081709;28;20549;-67
2023/12/23 02:37:45;;;;;;;12.75;3.30;;;;;;;8.24;100.00;100728.53;5093423;28;20047;-65
2023/12/23 02:40:34;;;;;;;14.40;3.28;;;;;;;8.26;100.00;100726.38;5079759;28;20511;-67
2023/12/23 02:43:22;;;;;;;12.90;3.30;;;;;;;8.27;100.00;100709.03;5078980;28;20074;-65
2023/12/23 02:46:10;;;;;;;13.02;3.08;;;;;;;8.32;100.00;100714.50;5094925;28;20059;-67
2023/12/23 02:48:59;;;;;;;12.95;3.10;;;;;;;8.35;100.00;100711.28;5092932;28;20566;-66
2023/12/23 02:51:48;;;;;;;10.38;3.58;;;;;;;8.37;100.00;100732.72;5077748;28;20504;-71
2023/12/23 02:54:36;;;;;;;13.57;3.60;;;;;;;8.41;100.00;100723.03;5087871;28;20179;-67
2023/12/23 02:57:24;;;;;;;9.43;3.05;;;;;;;8.38;100.00;100712.69;5094918;28;20036;-65
2023/12/23 03:00:12;;;;;;;12.20;3.33;;;;;;;8.38;100.00;100724.34;5094721;28;20095;-67
2023/12/23 03:03:00;;;;;;;12.32;3.13;;;;;;;8.36;100.00;100723.78;5093319;28;20074;-67
2023/12/23 03:05:48;;;;;;;11.68;2.95;;;;;;;8.38;100.00;100701.81;5078467;28;20507;-66
2023/12/23 03:08:37;;;;;;;9.25;2.70;;;;;;;8.38;100.00;100709.97;5093790;28;20048;-67
2023/12/23 03:11:25;;;;;;;12.85;3.33;;;;;;;8.36;100.00;100696.63;5065969;28;20127;-66
2023/12/23 03:14:13;;;;;;;13.02;3.28;;;;;;;8.36;100.00;100702.06;5092160;28;20407;-66
2023/12/23 03:17:01;;;;;;;10.95;2.72;;;;;;;8.36;100.00;100693.91;5068179;28;20408;-66
2023/12/23 03:19:53;;;;;;;11.35;3.63;;;;;;;8.37;100.00;100706.44;5082459;28;20102;-65
2023/12/23 03:22:41;;;;;;;11.57;3.40;;;;;;;8.39;100.00;100693.41;5093592;28;20055;-66
2023/12/23 03:25:29;;;;;;;15.50;3.50;;;;;;;8.37;100.00;100690.16;5093035;28;20492;-68
2023/12/23 03:28:18;;;;;;;12.88;2.97;;;;;;;8.37;100.00;100700.16;5078744;28;20512;-66
2023/12/23 03:31:06;;;;;;;12.45;3.45;;;;;;;8.38;100.00;100696.38;5079332;28;20412;-65
2023/12/23 03:33:56;;;;;;;14.88;3.50;;;;;;;8.37;100.00;100676.56;5077941;28;20056;-68
2023/12/23 03:36:44;;;;;;;12.90;3.15;;;;;;;8.41;100.00;100679.59;5091178;28;20040;-66
2023/12/23 03:39:32;;;;;;;11.00;3.10;;;;;;;8.42;100.00;100671.22;5094077;28;20085;-67
2023/12/23 03:42:20;;;;;;;15.55;3.63;;;;;;;8.45;100.00;100665.25;5094726;28;20044;-66
2023/12/23 03:45:08;;;;;;;9.10;2.92;;;;;;;8.48;100.00;100664.75;5090099;28;20070;-66
2023/12/23 03:47:56;;;;;;;10.73;3.47;;;;;;;8.51;100.00;100666.97;5093080;28;20064;-67
2023/12/23 03:50:44;;;;;;;11.48;3.28;;;;;;;8.56;100.00;100670.78;5077943;28;20040;-65
2023/12/23 03:53:32;;;;;;;13.60;3.60;;;;;;;8.57;100.00;100677.88;5093515;28;20123;-67
2023/12/23 03:56:21;;;;;;;14.82;4.00;;;;;;;8.59;100.00;100676.53;5096003;28;20056;-67
2023/12/23 03:59:09;;;;;;;11.07;3.33;;;;;;;8.61;100.00;100668.94;5071939;28;20415;-67
2023/12/23 04:01:57;;;;;;;10.20;3.30;;;;;;;8.63;100.00;100679.53;5072787;28;20045;-67
2023/12/23 04:04:45;;;;;;;12.75;3.30;;;;;;;8.63;100.00;100660.50;5072775;28;20049;-67
2023/12/23 04:07:33;;;;;;;10.68;3.35;;;;;;;8.65;100.00;100653.75;5094000;28;20048;-66
2023/12/23 04:10:21;;;;;;;11.00;3.10;;;;;;;8.65;100.00;100653.75;5098971;28;20059;-66
2023/12/23 04:13:09;;;;;;;14.50;2.97;;;;;;;8.63;100.00;100644.22;5084651;28;20055;-67
2023/12/23 04:15:57;;;;;;;10.80;3.05;;;;;;;8.67;100.00;100645.34;5097871;28;20536;-71
2023/12/23 04:18:45;;;;;;;16.25;3.50;;;;;;;8.69;100.00;100649.44;5066043;28;20517;-66
2023/12/23 04:21:34;;;;;;;13.60;3.50;;;;;;;8.72;100.00;100645.38;5095942;28;20565;-66
2023/12/23 04:24:22;;;;;;;15.77;3.67;;;;;;;8.73;100.00;100645.13;5067515;28;20044;-66
2023/12/23 04:27:10;;;;;;;11.63;3.10;;;;;;;8.72;100.00;100639.94;5061865;28;20044;-66
2023/12/23 04:29:58;;;;;;;13.15;4.55;;;;;;;8.73;100.00;100617.97;5076379;28;20126;-67
2023/12/23 04:32:48;;;;;;;9.80;3.00;;;;;;;8.70;100.00;100612.22;5078006;28;20495;-65
2023/12/23 04:35:37;;;;;;;11.25;2.70;;;;;;;8.70;100.00;100617.66;5078929;28;20511;-66
2023/12/23 04:38:26;;;;;;;12.98;3.50;;;;;;;8.68;100.00;100608.94;5076663;28;20536;-66
2023/12/23 04:41:14;;;;;;;13.45;3.67;;;;;;;8.68;100.00;100617.94;5049592;28;20093;-65
2023/12/23 04:44:05;;;;;;;13.57;3.72;;;;;;;8.71;100.00;100622.03;5076721;28;20112;-66
2023/12/23 04:46:53;;;;;;;12.43;3.45;;;;;;;8.71;100.00;100608.44;5064465;28;20553;-66
2023/12/23 04:49:41;;;;;;;14.18;3.70;;;;;;;8.69;100.00;100635.03;5088564;28;20040;-65
2023/12/23 04:52:29;;;;;;;13.55;3.40;;;;;;;8.77;100.00;100620.16;5077985;28;20521;-69
2023/12/23 04:55:17;;;;;;;12.68;3.20;;;;;;;8.79;100.00;100613.38;5093346;28;20052;-66
2023/12/23 04:58:05;;;;;;;14.60;3.88;;;;;;;8.76;100.00;100624.78;5077020;28;20520;-68
2023/12/23 05:00:53;;;;;;;11.75;3.83;;;;;;;8.77;100.00;100614.72;5089604;28;20606;-67
2023/12/23 05:03:41;;;;;;;14.73;3.90;;;;;;;8.76;100.00;100624.78;5077872;28;20052;-66
2023/12/23 05:06:29;;;;;;;10.57;3.10;;;;;;;8.80;100.00;100606.84;5091802;28;20047;-66
2023/12/23 05:09:17;;;;;;;14.50;3.83;;;;;;;8.78;100.00;100602.78;5075952;28;20132;-66
2023/12/23 05:12:05;;;;;;;14.10;3.55;;;;;;;8.78;100.00;100619.91;5091780;28;20043;-66
2023/12/23 05:14:53;;;;;;;14.30;3.47;;;;;;;8.79;100.00;100604.44;5083678;28;20130;-66
2023/12/23 05:17:41;;;;;;;11.68;3.55;;;;;;;8.76;100.00;100589.47;5083444;28;20052;-66
2023/12/23 05:20:30;;;;;;;15.15;3.40;;;;;;;8.76;100.00;100581.31;5069367;28;20052;-67
2023/12/23 05:23:18;;;;;;;12.82;3.35;;;;;;;8.79;100.00;100591.66;5096102;28;20043;-68
2023/12/23 05:26:06;;;;;;;12.52;3.40;;;;;;;8.76;100.00;100588.66;5111904;28;20043;-66
2023/12/23 05:28:54;;;;;;;13.43;3.58;;;;;;;8.76;100.00;100594.91;5096713;28;20506;-68
2023/12/23 05:31:43;;;;;;;14.45;4.10;;;;;;;8.71;100.00;100594.88;5078649;28;20035;-66
2023/12/23 05:34:31;;;;;;;15.18;3.92;;;;;;;8.70;100.00;100587.78;5094848;28;20055;-67
2023/12/23 05:37:19;;;;;;;16.23;3.85;;;;;;;8.71;100.00;100575.84;5085847;28;20071;-63
2023/12/23 05:40:09;;;;;;;15.88;4.20;;;;;;;8.70;100.00;100582.34;5103624;28;20094;-63
2023/12/23 05:42:57;;;;;;;12.70;3.70;;;;;;;8.72;100.00;100585.63;5055871;28;20126;-65
2023/12/23 05:45:45;;;;;;;12.55;3.70;;;;;;;8.73;100.00;100584.53;5093208;28;20507;-65
2023/12/23 05:48:33;;;;;;;16.67;4.10;;;;;;;8.73;100.00;100579.09;5095919;28;20118;-61
2023/12/23 05:51:21;;;;;;;14.60;3.55;;;;;;;8.73;100.00;100584.53;5127257;28;20039;-65
2023/12/23 05:54:08;;;;;;;14.88;3.75;;;;;;;8.74;100.00;100610.63;5094139;28;20079;-66
2023/12/23 05:56:56;;;;;;;15.20;4.18;;;;;;;8.74;100.00;100586.19;4747823;28;10000082;-67
2023/12/23 05:59:44;;;;;;;15.55;3.78;;;;;;;8.78;100.00;100592.75;5088634;28;20095;-66
2023/12/23 06:02:32;;;;;;;15.27;3.83;;;;;;;8.78;100.00;100597.34;5070547;28;20514;-67
2023/12/23 06:05:20;;;;;;;12.02;3.67;;;;;;;8.77;100.00;100585.66;5076548;28;20052;-69
2023/12/23 06:08:09;;;;;;;14.00;3.72;;;;;;;8.76;100.00;100588.66;5090929;28;20059;-67
2023/12/23 06:10:57;;;;;;;19.33;3.67;;;;;;;8.75;100.00;100590.53;5071507;28;20054;-66
2023/12/23 06:13:46;;;;;;;15.45;4.10;;;;;;;8.79;100.00;100604.44;5080184;28;20066;-68
2023/12/23 06:16:39;;;;;;;22.65;4.53;;;;;;;8.79;100.00;100586.22;5093400;28;20043;-69
2023/12/23 06:19:28;;;;;;;14.32;3.70;;;;;;;8.76;100.00;100583.22;5059193;28;20048;-66
2023/12/23 06:22:16;;;;;;;18.80;4.35;;;;;;;8.73;100.00;100595.41;5090682;28;20526;-66
2023/12/23 06:25:04;;;;;;;16.80;4.07;;;;;;;8.72;100.00;100583.72;5091470;28;20044;-67
2023/12/23 06:27:52;;;;;;;19.60;4.93;;;;;;;8.70;100.00;100602.19;5044012;28;20051;-67
2023/12/23 06:30:40;;;;;;;15.43;3.88;;;;;;;8.69;100.00;100583.44;5042908;28;20048;-67
2023/12/23 06:33:28;;;;;;;18.77;4.30;;;;;;;8.70;100.00;100596.75;5070286;28;20416;-67
2023/12/23 06:36:16;;;;;;;19.27;4.82;;;;;;;8.70;100.00;100590.50;5055881;28;20438;-68
2023/12/23 06:39:04;;;;;;;16.75;4.50;;;;;;;8.71;100.00;100597.59;5086379;28;20055;-67
2023/12/23 06:41:52;;;;;;;18.00;4.38;;;;;;;8.73;100.00;100595.41;5091413;28;20052;-67
2023/12/23 06:44:40;;;;;;;18.95;4.38;;;;;;;8.77;100.00;100587.56;5076807;28;20431;-68
2023/12/23 06:47:28;;;;;;;14.23;4.05;;;;;;;8.80;100.00;100592.47;5075827;28;20060;-66
2023/12/23 06:50:17;;;;;;;16.67;4.40;;;;;;;8.77;100.00;100601.97;5091134;28;20123;-68
2023/12/23 06:53:05;;;;;;;19.88;4.32;;;;;;;8.77;100.00;100593.81;5070521;28;20398;-67
2023/12/23 06:55:53;;;;;;;13.75;3.72;;;;;;;8.77;100.00;100588.38;5070514;28;20139;-68
2023/12/23 06:58:42;;;;;;;16.30;3.90;;;;;;;8.76;100.00;100589.47;5058259;28;20036;-67
2023/12/23 07:01:37;;;;;;;21.05;4.88;;;;;;;8.75;100.00;100568.78;5049817;28;20386;-68
2023/12/23 07:04:26;;;;;;;15.90;4.40;;;;;;;8.77;100.00;100580.22;5091229;28;20392;-66
2023/12/23 07:07:14;;;;;;;16.40;3.80;;;;;;;8.78;100.00;100565.59;5091618;28;20585;-66
2023/12/23 07:10:03;;;;;;;16.42;5.25;;;;;;;8.80;100.00;100579.69;5074414;28;20183;-68
2023/12/23 07:12:55;;;;;;;17.02;4.43;;;;;;;8.81;100.00;100591.41;5074637;28;20048;-67
2023/12/23 07:15:43;;;;;;;18.23;4.28;;;;;;;8.80;100.00;100557.97;5093003;28;20052;-67
2023/12/23 07:18:31;;;;;;;16.92;4.40;;;;;;;8.80;100.00;100576.97;5101908;28;20134;-67
2023/12/23 07:21:20;;;;;;;22.17;5.07;;;;;;;8.81;100.00;100580.53;5072152;28;20059;-66
2023/12/23 07:24:08;;;;;;;15.75;4.20;;;;;;;8.83;100.00;100581.09;5088573;28;20048;-66
2023/12/23 07:26:56;;;;;;;20.02;5.53;;;;;;;8.88;100.00;100576.50;5090801;28;20510;-65
2023/12/23 07:29:44;;;;;;;17.67;4.13;;;;;;;8.90;100.00;100578.97;5108335;28;20051;-65
2023/12/23 07:32:35;;;;;;;17.08;4.45;;;;;;;8.90;100.00;100566.19;5099721;28;20044;-67
2023/12/23 07:35:23;;;;;;;15.20;4.60;;;;;;;8.90;100.00;100601.50;5079004;28;20067;-67
2023/12/23 07:38:11;;;;;;;18.23;4.05;;;;;;;8.91;100.00;100597.69;5077923;28;20079;-67
2023/12/23 07:40:59;;;;;;;17.33;4.72;;;;;;;8.94;100.00;100599.88;5059302;28;20539;-66
2023/12/23 07:43:47;;;;;;;17.50;4.15;;;;;;;8.95;100.00;100587.97;5092103;28;20055;-67
2023/12/23 07:46:35;;;;;;;17.48;4.63;;;;;;;8.96;100.00;100597.72;5052522;28;20082;-67
2023/12/23 07:49:23;;;;;;;15.82;4.53;;;;;;;9.00;100.00;100599.94;5077487;28;20044;-66
2023/12/23 07:52:11;;;;;;;17.38;4.65;;;;;;;9.00;100.00;100586.34;5105675;28;20048;-66
2023/12/23 07:54:59;;;;;;;17.58;4.78;;;;;;;8.99;100.00;100601.00;5115212;28;20412;-66
2023/12/23 07:57:47;;;;;;;17.67;5.07;;;;;;;9.03;100.00;100607.56;5114682;28;20487;-68
2023/12/23 08:00:35;;;;;;;20.00;4.40;;;;;;;9.02;100.00;100601.31;5099572;28;20128;-67
2023/12/23 08:03:23;;;;;;;21.95;4.57;;;;;;;9.03;100.00;100604.84;5094271;28;20123;-66
2023/12/23 08:06:11;;;;;;;18.52;4.47;;;;;;;9.04;100.00;100593.69;5098868;28;20047;-66
2023/12/23 08:08:59;;;;;;;19.02;4.22;;;;;;;9.05;100.00;100613.56;5088115;28;20181;-66
2023/12/23 08:11:47;;;;;;;16.13;4.25;;;;;;;9.05;100.00;100611.66;5064421;28;20043;-67
2023/12/23 08:14:35;;;;;;;16.88;4.05;;;;;;;9.05;100.00;100599.97;5063605;28;20100;-67
2023/12/23 08:17:23;;;;;;;20.25;3.97;;;;;;;9.06;100.00;100604.31;5091450;28;20110;-66
2023/12/23 08:20:11;;;;;;;14.57;4.00;;;;;;;9.06;100.00;100607.84;5078687;28;20177;-67
2023/12/23 08:23:00;;;;;;;17.05;4.05;;;;;;;9.07;100.00;100605.97;5079815;28;20174;-66
2023/12/23 08:25:50;;;;;;;14.98;4.43;;;;;;;9.07;100.00;100606.78;5092844;28;20055;-66
2023/12/23 08:28:38;;;;;;;15.05;3.72;;;;;;;9.08;100.00;100605.69;5080835;28;20396;-67
2023/12/23 08:31:26;;;;;;;16.20;3.95;;;;;;;9.12;100.00;100608.72;5076456;28;20067;-68
2023/12/23 08:34:14;;;;;;;15.48;3.55;;;;;;;9.14;100.00;100604.63;5092995;28;20044;-67
2023/12/23 08:37:05;;;;;;;15.07;3.78;;;;;;;9.15;100.00;100605.44;5077367;28;20044;-68
2023/12/23 08:39:53;;;;;;;15.23;3.63;;;;;;;9.17;100.00;100611.44;5078564;28;20491;-68
2023/12/23 08:42:43;;;;;;;14.07;3.60;;;;;;;9.16;100.00;100616.06;5093376;28;20058;-68
2023/12/23 08:45:31;;;;;;;17.88;3.70;;;;;;;9.19;100.00;100614.72;5093282;28;20385;-68
2023/12/23 08:48:19;;;;;;;15.27;3.80;;;;;;;9.20;100.00;100627.22;5077692;28;20189;-67
2023/12/23 08:51:08;;;;;;;12.65;3.47;;;;;;;9.22;100.00;100625.06;5086057;28;20503;-69
2023/12/23 08:53:56;;;;;;;12.13;3.33;;;;;;;9.23;100.00;100615.81;5098078;28;20050;-67
2023/12/23 08:56:44;;;;;;;13.18;3.33;;;;;;;9.23;100.00;100623.97;5097654;28;20047;-67
2023/12/23 08:59:32;;;;;;;13.65;3.65;;;;;;;9.24;100.00;100632.97;5096568;28;20419;-69
2023/12/23 09:02:20;;;;;;;11.98;2.97;;;;;;;9.27;100.00;100640.59;5093420;28;20475;-68
2023/12/23 09:05:11;;;;;;;17.42;4.18;;;;;;;9.28;100.00;100645.75;5078141;28;20055;-67
2023/12/23 09:07:59;;;;;;;11.85;3.08;;;;;;;9.29;100.00;100647.41;5077446;28;20044;-66
2023/12/23 09:10:47;;;;;;;13.45;3.05;;;;;;;9.30;100.00;100654.47;5093780;28;20589;-67
2023/12/23 09:13:37;;;;;;;10.60;3.47;;;;;;;9.28;100.00;100661.25;5092744;28;20044;-68
2023/12/23 09:16:25;;;;;;;13.73;3.47;;;;;;;9.24;100.00;100655.53;5078052;28;20048;-68
2023/12/23 09:19:13;;;;;;;10.23;3.30;;;;;;;9.21;100.00;100655.22;5063185;28;20070;-70
2023/12/23 09:22:01;;;;;;;14.70;3.72;;;;;;;9.17;100.00;100657.66;5104328;28;20043;-67
2023/12/23 09:24:49;;;;;;;14.70;3.55;;;;;;;9.13;100.00;100646.47;5112252;28;20101;-68
2023/12/23 09:27:37;;;;;;;11.15;3.05;;;;;;;9.13;100.00;100651.09;5069867;28;20056;-69
2023/12/23 09:30:25;;;;;;;13.32;3.65;;;;;;;9.12;100.00;100653.00;5082181;28;20144;-68
2023/12/23 09:33:13;;;;;;;16.08;3.72;;;;;;;9.12;100.00;100663.06;5079391;28;20492;-68
2023/12/23 09:36:01;;;;;;;16.13;3.47;;;;;;;9.15;100.00;100662.53;5079203;28;20044;-67
2023/12/23 09:38:50;;;;;;;14.15;4.20;;;;;;;9.16;100.00;100656.00;5096546;28;20170;-68
2023/12/23 09:41:38;;;;;;;16.95;4.50;;;;;;;9.16;100.00;100664.16;5096507;28;20055;-67
2023/12/23 09:44:26;;;;;;;20.42;4.07;;;;;;;9.18;100.00;100667.44;5060516;28;20044;-67
2023/12/23 09:47:14;;;;;;;15.85;3.53;;;;;;;9.20;100.00;100676.16;5048483;28;20056;-67
2023/12/23 09:50:02;;;;;;;15.27;3.63;;;;;;;9.20;100.00;100676.16;5061571;28;20064;-67
2023/12/23 09:52:54;;;;;;;12.63;3.17;;;;;;;9.22;100.00;100673.19;5073541;28;20174;-67
2023/12/23 09:55:42;;;;;;;12.13;3.63;;;;;;;9.24;100.00;100682.72;5116790;28;20055;-67
2023/12/23 09:58:31;;;;;;;14.35;3.88;;;;;;;9.24;100.00;100677.28;5074464;28;20043;-68
2023/12/23 10:01:19;;;;;;;14.63;3.80;;;;;;;9.25;100.00;100692.50;5131376;28;20063;-64
2023/12/23 10:04:07;;;;;;;14.95;3.83;;;;;;;9.27;100.00;100700.41;5108147;28;20040;-63
2023/12/23 10:06:55;;;;;;;14.75;3.53;;;;;;;9.27;100.00;100700.41;5117771;28;20101;-67
2023/12/23 10:09:43;;;;;;;15.68;3.85;;;;;;;9.28;100.00;100700.13;5104584;28;20039;-67
2023/12/23 10:12:31;;;;;;;12.57;3.17;;;;;;;9.29;100.00;100690.91;5130275;28;20061;-63
2023/12/23 10:15:20;;;;;;;15.52;4.05;;;;;;;9.31;100.00;100688.72;5133026;28;20160;-68
2023/12/23 10:18:11;;;;;;;11.25;3.80;;;;;;;9.31;100.00;100685.22;5121300;28;20051;-67
2023/12/23 10:21:00;;;;;;;15.35;3.67;;;;;;;9.31;100.00;100677.88;5087629;28;20043;-68
2023/12/23 10:23:48;;;;;;;19.73;4.55;;;;;;;9.32;100.00;100690.34;5086663;28;20397;-67
2023/12/23 10:26:37;;;;;;;16.83;3.35;;;;;;;9.31;100.00;100664.28;5060759;28;20109;-68
2023/12/23 10:29:27;;;;;;;13.43;3.25;;;;;;;9.33;100.00;100675.69;5059799;28;20068;-69
2023/12/23 10:32:17;;;;;;;15.15;4.00;;;;;;;9.33;100.00;100681.13;5032831;28;20102;-69
2023/12/23 10:35:07;;;;;;;11.38;3.30;;;;;;;9.34;100.00;100696.34;5088638;28;20038;-67
2023/12/23 10:37:59;;;;;;;15.93;3.60;;;;;;;9.36;100.00;100686.03;5101199;28;20495;-67
2023/12/23 10:41:02;;;;;;;18.27;4.18;;;;;;;9.38;100.00;100692.03;5099727;28;20039;-69
2023/12/23 10:43:52;;;;;;;15.68;3.72;;;;;;;9.41;100.00;100687.16;5098814;28;20051;-68
2023/12/23 10:46:42;;;;;;;15.95;3.22;;;;;;;9.44;100.00;100670.31;5083902;28;20097;-67
2023/12/23 10:49:30;;;;;;;15.80;3.58;;;;;;;9.45;100.00;100675.47;5099240;28;20128;-67
2023/12/23 10:52:19;;;;;;;15.32;4.00;;;;;;;9.48;100.00;100666.00;5099833;28;20093;-69
2023/12/23 10:55:07;;;;;;;13.73;3.30;;;;;;;9.50;100.00;100666.53;5114532;28;20357;-67
2023/12/23 10:57:56;;;;;;;13.68;3.55;;;;;;;9.54;100.00;100664.91;5061218;28;20051;-65
2023/12/23 11:00:46;;;;;;;14.18;3.30;;;;;;;9.55;100.00;100672.00;5058941;28;20072;-67
2023/12/23 11:03:35;;;;;;;13.20;3.47;;;;;;;9.57;100.00;100680.69;5074975;28;20432;-67
2023/12/23 11:06:23;;;;;;;12.30;3.45;;;;;;;9.59;100.00;100686.69;5065802;28;20067;-67
2023/12/23 11:09:13;;;;;;;17.50;3.45;;;;;;;9.63;100.00;100682.38;5060224;28;20051;-67
2023/12/23 11:12:01;;;;;;;13.25;3.13;;;;;;;9.64;100.00;100692.16;5059207;28;20048;-67
2023/12/23 11:14:49;;;;;;;12.27;3.10;;;;;;;9.65;100.00;100699.25;5044744;28;20036;-67
2023/12/23 11:17:45;;;;;;;12.40;3.13;;;;;;;9.67;100.00;100696.25;5088134;28;20087;-68
2023/12/23 11:20:35;;;;;;;11.57;3.17;;;;;;;9.68;100.00;100684.28;5101508;28;20051;-67
2023/12/23 11:23:26;;;;;;;15.10;3.08;;;;;;;9.70;100.00;100690.28;5085573;28;20134;-67
2023/12/23 11:26:40;;;;;;;16.33;3.03;;;;;;;9.74;100.00;100697.66;5099872;28;20418;-66
2023/12/23 11:29:28;;;;;;;12.95;3.30;;;;;;;9.79;100.00;100678.63;5073228;28;20041;-68
2023/12/23 11:32:16;;;;;;;8.70;3.00;;;;;;;9.78;100.00;100682.44;5059588;28;20056;-67
2023/12/23 11:35:07;;;;;;;15.10;3.20;;;;;;;9.79;100.00;100684.06;5073805;28;20049;-68
2023/12/23 11:37:55;;;;;;;10.75;3.30;;;;;;;9.81;100.00;100702.84;5067676;28;20070;-67
2023/12/23 11:40:44;;;;;;;10.07;2.70;;;;;;;9.81;100.00;100681.91;5099857;28;20044;-67
2023/12/23 11:43:32;;;;;;;17.23;3.08;;;;;;;9.82;100.00;100686.25;5085457;28;20081;-66
2023/12/23 11:46:24;;;;;;;11.75;3.20;;;;;;;9.85;100.00;100689.53;5098170;28;20040;-68
2023/12/23 11:49:12;;;;;;;11.10;2.95;;;;;;;9.85;100.00;100693.06;5102703;28;20044;-67
2023/12/23 11:52:01;;;;;;;9.75;2.60;;;;;;;9.85;100.00;100693.06;5095880;28;20124;-67
2023/12/23 11:54:49;;;;;;;11.77;2.70;;;;;;;9.88;100.00;100680.84;5099241;28;20521;-67
2023/12/23 11:57:37;;;;;;;9.90;3.03;;;;;;;9.90;100.00;100684.09;5070491;28;20406;-68
2023/12/23 12:00:25;;;;;;;10.50;3.13;;;;;;;9.92;100.00;100676.50;5061580;28;20049;-67
2023/12/23 12:03:13;;;;;;;10.35;2.97;;;;;;;9.92;100.00;100676.50;5057771;28;20189;-68
2023/12/23 12:06:04;;;;;;;9.90;3.22;;;;;;;9.92;100.00;100695.56;5072981;28;20576;-67
2023/12/23 12:08:54;;;;;;;11.77;2.97;;;;;;;9.92;100.00;100698.28;5072868;28;20132;-65
2023/12/23 12:11:42;;;;;;;11.35;3.03;;;;;;;9.90;100.00;100706.69;5073496;28;20044;-67
2023/12/23 12:14:31;;;;;;;9.60;2.92;;;;;;;9.90;100.00;100679.47;5083836;28;20036;-67
2023/12/23 12:17:19;;;;;;;12.70;2.70;;;;;;;9.92;100.00;100679.22;5093056;28;20124;-66
2023/12/23 12:20:08;;;;;;;9.05;2.60;;;;;;;9.90;100.00;100678.66;5077167;28;20036;-66
2023/12/23 12:22:56;;;;;;;9.85;3.05;;;;;;;9.91;100.00;100686.56;5057063;28;20041;-66
2023/12/23 12:25:50;;;;;;;7.43;2.33;;;;;;;9.92;100.00;100681.94;5072072;28;20497;-66
2023/12/23 12:28:39;;;;;;;9.98;3.10;;;;;;;9.92;100.00;100685.47;5045155;28;20041;-67
2023/12/23 12:31:27;;;;;;;8.48;2.53;;;;;;;9.98;100.00;100695.31;5086737;28;20055;-68
2023/12/23 12:34:15;;;;;;;9.95;2.63;;;;;;;10.01;100.00;100693.97;5081710;28;20180;-67
2023/12/23 12:37:03;;;;;;;9.45;2.63;;;;;;;10.01;100.00;100675.72;5098181;28;20046;-66
2023/12/23 12:39:51;;;;;;;9.68;2.80;;;;;;;9.99;100.00;100672.44;5083983;28;20124;-67
2023/12/23 12:42:45;;;;;;;13.52;2.92;;;;;;;9.99;100.00;100693.41;5079997;28;20500;-67
2023/12/23 12:45:40;;;;;;;10.20;3.13;;;;;;;9.96;100.00;100694.75;5078534;28;20047;-67
2023/12/23 12:48:30;;;;;;;11.70;2.80;;;;;;;9.97;100.00;100701.81;5064713;28;20048;-66
2023/12/23 12:51:19;;;;;;;9.50;3.08;;;;;;;9.97;100.00;100696.38;5093242;28;20040;-68
2023/12/23 12:54:07;;;;;;;10.93;2.75;;;;;;;9.99;100.00;100693.41;5096411;28;20078;-68
2023/12/23 12:56:56;;;;;;;9.70;2.90;;;;;;;9.98;100.00;100691.75;5112558;28;20485;-67